sensor_id;sensor_type;location;lat;lon;timestamp;pressure;altitude;pressure_sealevel;temperature;humidity
19128;BME280;9696;53.686;10.094;2023-04-10T00:00:22;102379.66;;;6.31;100.00
19128;BME280;9696;53.686;10.094;2023-04-10T00:02:51;102377.69;;;6.36;100.00
19128;BME280;9696;53.686;10.094;2023-04-10T00:05:20;102377.22;;;6.46;100.00
19128;BME280;9696;53.686;10.094;2023-04-10T00:07:49;102362.59;;;6.24;100.00
19128;BME280;9696;53.686;10.094;2023-04-10T00:10:19;102361.78;;;6.22;100.00
19128;BME280;9696;53.686;10.094;2023-04-10T00:12:48;102358.13;;;6.26;100.00
19128;BME280;9696;53.686;10.094;2023-04-10T00:15:19;102351.22;;;6.25;100.00
19128;BME280;9696;53.686;10.094;2023-04-10T00:17:48;102348.91;;;6.19;100.00
19128;BME280;9696;53.686;10.094;2023-04-10T00:20:22;102341.13;;;6.17;100.00
19128;BME280;9696;53.686;10.094;2023-04-10T00:22:53;102348.03;;;6.18;100.00
19128;BME280;9696;53.686;10.094;2023-04-10T00:25:22;102341.03;;;6.20;100.00
19128;BME280;9696;53.686;10.094;2023-04-10T00:27:51;102349.88;;;6.16;100.00
19128;BME280;9696;53.686;10.094;2023-04-10T00:30:22;102338.34;;;6.22;100.00
19128;BME280;9696;53.686;10.094;2023-04-10T00:32:51;102342.16;;;6.13;100.00
19128;BME280;9696;53.686;10.094;2023-04-10T00:35:20;102331.94;;;6.08;100.00
19128;BME280;9696;53.686;10.094;2023-04-10T00:37:49;102335.16;;;6.15;100.00
19128;BME280;9696;53.686;10.094;2023-04-10T00:40:21;102326.53;;;6.13;100.00
19128;BME280;9696;53.686;10.094;2023-04-10T00:42:50;102335.34;;;6.10;100.00
19128;BME280;9696;53.686;10.094;2023-04-10T00:45:21;102338.84;;;6.09;100.00
19128;BME280;9696;53.686;10.094;2023-04-10T00:47:51;102323.03;;;6.14;100.00
19128;BME280;9696;53.686;10.094;2023-04-10T00:50:20;102325.09;;;6.06;100.00
19128;BME280;9696;53.686;10.094;2023-04-10T00:52:49;102322.69;;;6.22;100.00
19128;BME280;9696;53.686;10.094;2023-04-10T00:55:19;102328.09;;;6.17;100.00
19128;BME280;9696;53.686;10.094;2023-04-10T00:57:48;102326.28;;;6.19;100.00
19128;BME280;9696;53.686;10.094;2023-04-10T01:00:18;102326.34;;;6.18;100.00
19128;BME280;9696;53.686;10.094;2023-04-10T01:02:49;102328.09;;;6.17;100.00
19128;BME280;9696;53.686;10.094;2023-04-10T01:05:19;102326.50;;;6.14;100.00
19128;BME280;9696;53.686;10.094;2023-04-10T01:07:57;102321.22;;;6.16;100.00
19128;BME280;9696;53.686;10.094;2023-04-10T01:10:37;102329.75;;;6.20;100.00
19128;BME280;9696;53.686;10.094;2023-04-10T01:13:15;102324.66;;;6.16;100.00
19128;BME280;9696;53.686;10.094;2023-04-10T01:16:07;102323.59;;;6.21;100.00
19128;BME280;9696;53.686;10.094;2023-04-10T01:18:43;102324.91;;;6.10;100.00
19128;BME280;9696;53.686;10.094;2023-04-10T01:21:15;102320.38;;;6.15;100.00
19128;BME280;9696;53.686;10.094;2023-04-10T01:24:14;102318.72;;;6.13;100.00
19128;BME280;9696;53.686;10.094;2023-04-10T01:27:01;102312.22;;;6.23;100.00
19128;BME280;9696;53.686;10.094;2023-04-10T01:29:36;102315.47;;;6.28;100.00
19128;BME280;9696;53.686;10.094;2023-04-10T01:32:14;102318.84;;;6.30;100.00
19128;BME280;9696;53.686;10.094;2023-04-10T01:34:45;102316.25;;;6.30;100.00
19128;BME280;9696;53.686;10.094;2023-04-10T01:37:17;102315.69;;;6.24;100.00
19128;BME280;9696;53.686;10.094;2023-04-10T01:39:52;102323.75;;;6.18;100.00
19128;BME280;9696;53.686;10.094;2023-04-10T01:42:22;102307.06;;;6.22;100.00
19128;BME280;9696;53.686;10.094;2023-04-10T01:44:55;102312.03;;;6.28;100.00
19128;BME280;9696;53.686;10.094;2023-04-10T01:47:26;102309.44;;;6.28;100.00
19128;BME280;9696;53.686;10.094;2023-04-10T01:49:57;102301.00;;;6.21;100.00
19128;BME280;9696;53.686;10.094;2023-04-10T01:52:27;102302.66;;;6.24;100.00
19128;BME280;9696;53.686;10.094;2023-04-10T01:55:08;102295.06;;;6.38;100.00
19128;BME280;9696;53.686;10.094;2023-04-10T01:57:45;102287.72;;;6.27;100.00
19128;BME280;9696;53.686;10.094;2023-04-10T02:00:17;102280.16;;;6.21;100.00
19128;BME280;9696;53.686;10.094;2023-04-10T02:02:46;102285.97;;;6.28;100.00
19128;BME280;9696;53.686;10.094;2023-04-10T02:05:16;102285.47;;;6.20;100.00
19128;BME280;9696;53.686;10.094;2023-04-10T02:07:50;102284.06;;;6.31;100.00
19128;BME280;9696;53.686;10.094;2023-04-10T02:10:27;102279.56;;;6.35;100.00
19128;BME280;9696;53.686;10.094;2023-04-10T02:13:01;102268.50;;;6.30;100.00
19128;BME280;9696;53.686;10.094;2023-04-10T02:15:36;102267.34;;;6.16;100.00
19128;BME280;9696;53.686;10.094;2023-04-10T02:18:09;102263.56;;;6.24;100.00
19128;BME280;9696;53.686;10.094;2023-04-10T02:20:39;102256.47;;;6.27;100.00
19128;BME280;9696;53.686;10.094;2023-04-10T02:23:09;102264.34;;;6.26;100.00
19128;BME280;9696;53.686;10.094;2023-04-10T02:25:38;102265.91;;;6.30;100.00
19128;BME280;9696;53.686;10.094;2023-04-10T02:28:08;102262.56;;;6.26;100.00
19128;BME280;9696;53.686;10.094;2023-04-10T02:30:38;102261.69;;;6.27;100.00
19128;BME280;9696;53.686;10.094;2023-04-10T02:33:10;102252.16;;;6.26;100.00
19128;BME280;9696;53.686;10.094;2023-04-10T02:35:40;102258.41;;;6.22;100.00
19128;BME280;9696;53.686;10.094;2023-04-10T02:38:09;102262.91;;;6.19;100.00
19128;BME280;9696;53.686;10.094;2023-04-10T02:40:38;102259.91;;;6.28;100.00
19128;BME280;9696;53.686;10.094;2023-04-10T02:43:12;102262.44;;;6.29;100.00
19128;BME280;9696;53.686;10.094;2023-04-10T02:45:43;102255.75;;;6.24;100.00
19128;BME280;9696;53.686;10.094;2023-04-10T02:48:19;102258.22;;;6.27;100.00
19128;BME280;9696;53.686;10.094;2023-04-10T02:50:56;102260.97;;;6.24;100.00
19128;BME280;9696;53.686;10.094;2023-04-10T02:53:26;102254.91;;;6.23;100.00
19128;BME280;9696;53.686;10.094;2023-04-10T02:55:59;102250.38;;;6.08;100.00
19128;BME280;9696;53.686;10.094;2023-04-10T02:58:29;102244.34;;;6.06;100.00
19128;BME280;9696;53.686;10.094;2023-04-10T03:01:00;102235.13;;;5.99;100.00
19128;BME280;9696;53.686;10.094;2023-04-10T03:03:56;102235.00;;;6.02;100.00
19128;BME280;9696;53.686;10.094;2023-04-10T03:06:32;102229.72;;;6.03;100.00
19128;BME280;9696;53.686;10.094;2023-04-10T03:09:01;102229.53;;;6.08;100.00
19128;BME280;9696;53.686;10.094;2023-04-10T03:11:30;102233.09;;;6.05;100.00
19128;BME280;9696;53.686;10.094;2023-04-10T03:13:59;102224.66;;;6.00;100.00
19128;BME280;9696;53.686;10.094;2023-04-10T03:16:29;102216.03;;;5.98;100.00
19128;BME280;9696;53.686;10.094;2023-04-10T03:19:02;102220.69;;;5.92;100.00
19128;BME280;9696;53.686;10.094;2023-04-10T03:21:31;102220.06;;;5.85;100.00
19128;BME280;9696;53.686;10.094;2023-04-10T03:24:00;102210.88;;;5.97;100.00
19128;BME280;9696;53.686;10.094;2023-04-10T03:26:29;102208.72;;;5.88;100.00
19128;BME280;9696;53.686;10.094;2023-04-10T03:28:59;102202.47;;;5.92;100.00
19128;BME280;9696;53.686;10.094;2023-04-10T03:31:29;102206.63;;;5.96;100.00
19128;BME280;9696;53.686;10.094;2023-04-10T03:34:00;102207.72;;;5.90;100.00
19128;BME280;9696;53.686;10.094;2023-04-10T03:36:29;102207.03;;;5.85;100.00
19128;BME280;9696;53.686;10.094;2023-04-10T03:38:58;102203.00;;;5.78;100.00
19128;BME280;9696;53.686;10.094;2023-04-10T03:41:28;102199.22;;;5.85;100.00
19128;BME280;9696;53.686;10.094;2023-04-10T03:43:57;102198.34;;;5.86;100.00
19128;BME280;9696;53.686;10.094;2023-04-10T03:46:30;102193.13;;;5.86;100.00
19128;BME280;9696;53.686;10.094;2023-04-10T03:49:00;102196.69;;;5.84;100.00
19128;BME280;9696;53.686;10.094;2023-04-10T03:51:31;102191.09;;;5.93;100.00
19128;BME280;9696;53.686;10.094;2023-04-10T03:54:00;102196.53;;;5.88;100.00
19128;BME280;9696;53.686;10.094;2023-04-10T03:56:29;102196.31;;;5.93;100.00
19128;BME280;9696;53.686;10.094;2023-04-10T03:58:59;102186.03;;;5.90;100.00
19128;BME280;9696;53.686;10.094;2023-04-10T04:01:29;102186.63;;;5.96;100.00
19128;BME280;9696;53.686;10.094;2023-04-10T04:04:05;102185.44;;;5.83;100.00
19128;BME280;9696;53.686;10.094;2023-04-10T04:06:55;102183.53;;;5.88;100.00
19128;BME280;9696;53.686;10.094;2023-04-10T04:09:42;102188.31;;;5.97;100.00
19128;BME280;9696;53.686;10.094;2023-04-10T04:12:23;102184.28;;;5.90;100.00
19128;BME280;9696;53.686;10.094;2023-04-10T04:15:03;102189.16;;;5.98;100.00
19128;BME280;9696;53.686;10.094;2023-04-10T04:17:55;102186.75;;;5.93;100.00
19128;BME280;9696;53.686;10.094;2023-04-10T04:20:42;102186.84;;;5.92;100.00
19128;BME280;9696;53.686;10.094;2023-04-10T04:23:30;102184.09;;;5.95;100.00
19128;BME280;9696;53.686;10.094;2023-04-10T04:26:12;102180.63;;;5.94;100.00
19128;BME280;9696;53.686;10.094;2023-04-10T04:28:59;102186.19;;;5.87;100.00
19128;BME280;9696;53.686;10.094;2023-04-10T04:31:49;102193.66;;;5.94;100.00
19128;BME280;9696;53.686;10.094;2023-04-10T04:34:38;102187.88;;;5.88;100.00
19128;BME280;9696;53.686;10.094;2023-04-10T04:37:27;102186.34;;;5.82;100.00
19128;BME280;9696;53.686;10.094;2023-04-10T04:40:16;102180.22;;;5.83;100.00
19128;BME280;9696;53.686;10.094;2023-04-10T04:42:58;102180.97;;;5.87;100.00
19128;BME280;9696;53.686;10.094;2023-04-10T04:45:45;102182.66;;;5.88;100.00
19128;BME280;9696;53.686;10.094;2023-04-10T04:48:35;102180.28;;;5.82;100.00
19128;BME280;9696;53.686;10.094;2023-04-10T04:51:14;102183.88;;;5.79;100.00
19128;BME280;9696;53.686;10.094;2023-04-10T04:53:48;102173.19;;;5.85;100.00
19128;BME280;9696;53.686;10.094;2023-04-10T04:56:36;102175.88;;;5.84;100.00
19128;BME280;9696;53.686;10.094;2023-04-10T04:59:24;102175.75;;;5.87;100.00
19128;BME280;9696;53.686;10.094;2023-04-10T05:01:58;102182.19;;;5.98;100.00
19128;BME280;9696;53.686;10.094;2023-04-10T05:04:56;102182.00;;;6.03;100.00
19128;BME280;9696;53.686;10.094;2023-04-10T05:07:42;102181.91;;;6.04;100.00
19128;BME280;9696;53.686;10.094;2023-04-10T05:10:43;102184.44;;;6.06;100.00
19128;BME280;9696;53.686;10.094;2023-04-10T05:13:41;102181.00;;;6.05;100.00
19128;BME280;9696;53.686;10.094;2023-04-10T05:16:33;102185.03;;;6.12;100.00
19128;BME280;9696;53.686;10.094;2023-04-10T05:19:37;102186.66;;;6.15;100.00
19128;BME280;9696;53.686;10.094;2023-04-10T05:22:15;102184.56;;;6.23;100.00
19128;BME280;9696;53.686;10.094;2023-04-10T05:25:06;102178.66;;;6.38;100.00
19128;BME280;9696;53.686;10.094;2023-04-10T05:27:42;102177.84;;;6.36;100.00
19128;BME280;9696;53.686;10.094;2023-04-10T05:30:37;102182.50;;;6.48;100.00
19128;BME280;9696;53.686;10.094;2023-04-10T05:33:25;102174.63;;;6.50;100.00
19128;BME280;9696;53.686;10.094;2023-04-10T05:36:23;102159.88;;;6.86;100.00
19128;BME280;9696;53.686;10.094;2023-04-10T05:38:58;102168.22;;;6.93;100.00
19128;BME280;9696;53.686;10.094;2023-04-10T05:41:38;102164.56;;;6.97;100.00
19128;BME280;9696;53.686;10.094;2023-04-10T05:44:26;102164.50;;;7.16;100.00
19128;BME280;9696;53.686;10.094;2023-04-10T05:46:55;102158.28;;;7.52;100.00
19128;BME280;9696;53.686;10.094;2023-04-10T05:49:47;102159.31;;;7.50;100.00
19128;BME280;9696;53.686;10.094;2023-04-10T05:52:22;102154.53;;;7.41;100.00
19128;BME280;9696;53.686;10.094;2023-04-10T05:55:04;102154.69;;;7.38;100.00
19128;BME280;9696;53.686;10.094;2023-04-10T05:57:34;102150.53;;;7.34;100.00
19128;BME280;9696;53.686;10.094;2023-04-10T06:00:22;102152.59;;;7.44;100.00
19128;BME280;9696;53.686;10.094;2023-04-10T06:03:24;102142.22;;;7.60;100.00
19128;BME280;9696;53.686;10.094;2023-04-10T06:05:59;102147.91;;;7.51;100.00
19128;BME280;9696;53.686;10.094;2023-04-10T06:08:30;102149.78;;;7.49;100.00
19128;BME280;9696;53.686;10.094;2023-04-10T06:11:01;102145.41;;;7.49;100.00
19128;BME280;9696;53.686;10.094;2023-04-10T06:13:33;102136.13;;;7.77;100.00
19128;BME280;9696;53.686;10.094;2023-04-10T06:16:03;102134.09;;;7.66;100.00
19128;BME280;9696;53.686;10.094;2023-04-10T06:18:33;102135.94;;;7.64;100.00
19128;BME280;9696;53.686;10.094;2023-04-10T06:21:04;102128.34;;;7.92;100.00
19128;BME280;9696;53.686;10.094;2023-04-10T06:23:33;102122.00;;;7.81;100.00
19128;BME280;9696;53.686;10.094;2023-04-10T06:26:03;102111.84;;;7.75;100.00
19128;BME280;9696;53.686;10.094;2023-04-10T06:28:33;102115.47;;;8.05;100.00
19128;BME280;9696;53.686;10.094;2023-04-10T06:31:05;102113.81;;;7.87;100.00
19128;BME280;9696;53.686;10.094;2023-04-10T06:33:37;102103.56;;;7.99;100.00
19128;BME280;9696;53.686;10.094;2023-04-10T06:36:08;102103.44;;;8.34;100.00
19128;BME280;9696;53.686;10.094;2023-04-10T06:38:46;102101.69;;;8.34;100.00
19128;BME280;9696;53.686;10.094;2023-04-10T06:41:15;102097.81;;;8.57;100.00
19128;BME280;9696;53.686;10.094;2023-04-10T06:43:46;102096.19;;;8.55;100.00
19128;BME280;9696;53.686;10.094;2023-04-10T06:46:15;102094.25;;;8.58;100.00
19128;BME280;9696;53.686;10.094;2023-04-10T06:48:44;102091.88;;;8.53;100.00
19128;BME280;9696;53.686;10.094;2023-04-10T06:51:13;102085.19;;;8.79;100.00
19128;BME280;9696;53.686;10.094;2023-04-10T06:53:42;102090.41;;;8.79;100.00
19128;BME280;9696;53.686;10.094;2023-04-10T06:56:12;102095.13;;;8.88;100.00
19128;BME280;9696;53.686;10.094;2023-04-10T06:58:41;102091.84;;;9.29;100.00
19128;BME280;9696;53.686;10.094;2023-04-10T07:01:11;102091.50;;;9.05;100.00
19128;BME280;9696;53.686;10.094;2023-04-10T07:03:41;102088.84;;;9.21;100.00
19128;BME280;9696;53.686;10.094;2023-04-10T07:06:10;102089.28;;;9.71;100.00
19128;BME280;9696;53.686;10.094;2023-04-10T07:08:39;102081.13;;;9.90;100.00
19128;BME280;9696;53.686;10.094;2023-04-10T07:11:09;102082.25;;;9.86;100.00
19128;BME280;9696;53.686;10.094;2023-04-10T07:13:38;102086.81;;;10.25;100.00
19128;BME280;9696;53.686;10.094;2023-04-10T07:16:08;102088.59;;;10.51;100.00
19128;BME280;9696;53.686;10.094;2023-04-10T07:18:39;102083.34;;;10.51;100.00
19128;BME280;9696;53.686;10.094;2023-04-10T07:21:09;102084.34;;;10.63;100.00
19128;BME280;9696;53.686;10.094;2023-04-10T07:23:39;102077.31;;;10.63;100.00
19128;BME280;9696;53.686;10.094;2023-04-10T07:26:09;102078.94;;;10.78;100.00
19128;BME280;9696;53.686;10.094;2023-04-10T07:28:38;102072.69;;;10.54;100.00
19128;BME280;9696;53.686;10.094;2023-04-10T07:31:07;102072.97;;;10.76;100.00
19128;BME280;9696;53.686;10.094;2023-04-10T07:33:38;102075.03;;;11.11;100.00
19128;BME280;9696;53.686;10.094;2023-04-10T07:36:08;102066.75;;;11.17;100.00
19128;BME280;9696;53.686;10.094;2023-04-10T07:38:37;102063.69;;;11.86;100.00
19128;BME280;9696;53.686;10.094;2023-04-10T07:41:06;102060.97;;;11.75;100.00
19128;BME280;9696;53.686;10.094;2023-04-10T07:43:36;102063.25;;;12.05;100.00
19128;BME280;9696;53.686;10.094;2023-04-10T07:46:06;102053.81;;;12.13;100.00
19128;BME280;9696;53.686;10.094;2023-04-10T07:48:35;102057.69;;;11.97;100.00
19128;BME280;9696;53.686;10.094;2023-04-10T07:51:06;102060.13;;;12.47;100.00
19128;BME280;9696;53.686;10.094;2023-04-10T07:53:36;102052.53;;;12.55;100.00
19128;BME280;9696;53.686;10.094;2023-04-10T07:56:06;102047.72;;;12.60;100.00
19128;BME280;9696;53.686;10.094;2023-04-10T07:58:37;102046.28;;;12.33;100.00
19128;BME280;9696;53.686;10.094;2023-04-10T08:01:06;102046.34;;;12.67;100.00
19128;BME280;9696;53.686;10.094;2023-04-10T08:03:38;102046.31;;;12.91;100.00
19128;BME280;9696;53.686;10.094;2023-04-10T08:06:10;102044.66;;;12.66;100.00
19128;BME280;9696;53.686;10.094;2023-04-10T08:08:40;102046.00;;;13.07;100.00
19128;BME280;9696;53.686;10.094;2023-04-10T08:11:22;102041.50;;;12.96;100.00
19128;BME280;9696;53.686;10.094;2023-04-10T08:13:53;102042.34;;;12.86;100.00
19128;BME280;9696;53.686;10.094;2023-04-10T08:16:23;102044.44;;;12.69;100.00
19128;BME280;9696;53.686;10.094;2023-04-10T08:18:53;102036.25;;;12.96;100.00
19128;BME280;9696;53.686;10.094;2023-04-10T08:21:25;102034.41;;;12.74;100.00
19128;BME280;9696;53.686;10.094;2023-04-10T08:23:56;102038.63;;;12.88;100.00
19128;BME280;9696;53.686;10.094;2023-04-10T08:26:26;102027.72;;;13.28;100.00
19128;BME280;9696;53.686;10.094;2023-04-10T08:28:57;102021.16;;;13.66;100.00
19128;BME280;9696;53.686;10.094;2023-04-10T08:31:28;102015.88;;;13.78;100.00
19128;BME280;9696;53.686;10.094;2023-04-10T08:33:57;102020.78;;;13.49;100.00
19128;BME280;9696;53.686;10.094;2023-04-10T08:36:28;102013.38;;;14.19;100.00
19128;BME280;9696;53.686;10.094;2023-04-10T08:38:58;102015.94;;;14.09;100.00
19128;BME280;9696;53.686;10.094;2023-04-10T08:41:27;102014.09;;;14.21;100.00
19128;BME280;9696;53.686;10.094;2023-04-10T08:43:57;102010.25;;;14.25;100.00
19128;BME280;9696;53.686;10.094;2023-04-10T08:46:26;102006.78;;;13.71;100.00
19128;BME280;9696;53.686;10.094;2023-04-10T08:49:01;102000.06;;;14.21;100.00
19128;BME280;9696;53.686;10.094;2023-04-10T08:51:38;102009.28;;;13.50;100.00
19128;BME280;9696;53.686;10.094;2023-04-10T08:54:09;101994.84;;;13.87;100.00
19128;BME280;9696;53.686;10.094;2023-04-10T08:56:42;101990.91;;;13.93;100.00
19128;BME280;9696;53.686;10.094;2023-04-10T08:59:15;101986.31;;;14.70;100.00
19128;BME280;9696;53.686;10.094;2023-04-10T09:01:44;101986.53;;;14.46;100.00
19128;BME280;9696;53.686;10.094;2023-04-10T09:04:14;101981.63;;;14.73;100.00
19128;BME280;9696;53.686;10.094;2023-04-10T09:06:45;101976.66;;;14.80;100.00
19128;BME280;9696;53.686;10.094;2023-04-10T09:09:14;101975.94;;;14.98;100.00
19128;BME280;9696;53.686;10.094;2023-04-10T09:11:56;101970.53;;;15.00;100.00
19128;BME280;9696;53.686;10.094;2023-04-10T09:14:29;101971.75;;;14.96;100.00
19128;BME280;9696;53.686;10.094;2023-04-10T09:17:12;101959.03;;;15.10;100.00
19128;BME280;9696;53.686;10.094;2023-04-10T09:19:43;101954.56;;;15.41;100.00
19128;BME280;9696;53.686;10.094;2023-04-10T09:22:14;101959.13;;;14.79;100.00
19128;BME280;9696;53.686;10.094;2023-04-10T09:24:45;101947.31;;;15.64;100.00
19128;BME280;9696;53.686;10.094;2023-04-10T09:27:30;101941.66;;;16.07;100.00
19128;BME280;9696;53.686;10.094;2023-04-10T09:30:00;101941.63;;;15.97;100.00
19128;BME280;9696;53.686;10.094;2023-04-10T09:32:38;101938.88;;;15.49;100.00
19128;BME280;9696;53.686;10.094;2023-04-10T09:35:08;101926.44;;;15.90;100.00
19128;BME280;9696;53.686;10.094;2023-04-10T09:37:39;101920.19;;;16.10;100.00
19128;BME280;9696;53.686;10.094;2023-04-10T09:40:20;101914.19;;;16.18;100.00
19128;BME280;9696;53.686;10.094;2023-04-10T09:42:51;101908.63;;;16.01;100.00
19128;BME280;9696;53.686;10.094;2023-04-10T09:45:21;101909.44;;;15.64;100.00
19128;BME280;9696;53.686;10.094;2023-04-10T09:48:01;101906.28;;;15.39;100.00
19128;BME280;9696;53.686;10.094;2023-04-10T09:50:34;101890.22;;;16.00;100.00
19128;BME280;9696;53.686;10.094;2023-04-10T09:53:09;101882.41;;;15.70;100.00
19128;BME280;9696;53.686;10.094;2023-04-10T09:55:39;101884.38;;;16.06;100.00
19128;BME280;9696;53.686;10.094;2023-04-10T09:58:09;101875.72;;;16.33;100.00
19128;BME280;9696;53.686;10.094;2023-04-10T10:00:40;101864.41;;;16.40;100.00
19128;BME280;9696;53.686;10.094;2023-04-10T10:03:11;101870.72;;;15.82;100.00
19128;BME280;9696;53.686;10.094;2023-04-10T10:05:42;101855.19;;;16.64;100.00
19128;BME280;9696;53.686;10.094;2023-04-10T10:08:14;101854.56;;;16.79;100.00
19128;BME280;9696;53.686;10.094;2023-04-10T10:10:46;101842.59;;;16.75;100.00
19128;BME280;9696;53.686;10.094;2023-04-10T10:13:17;101841.84;;;16.36;100.00
19128;BME280;9696;53.686;10.094;2023-04-10T10:15:57;101837.13;;;16.30;100.00
19128;BME280;9696;53.686;10.094;2023-04-10T10:18:37;101851.16;;;16.40;97.41
19128;BME280;9696;53.686;10.094;2023-04-10T10:21:08;101826.13;;;16.81;94.45
19128;BME280;9696;53.686;10.094;2023-04-10T10:23:40;101819.97;;;17.08;94.43
19128;BME280;9696;53.686;10.094;2023-04-10T10:26:10;101819.31;;;16.79;95.11
19128;BME280;9696;53.686;10.094;2023-04-10T10:28:40;101807.56;;;16.81;94.34
19128;BME280;9696;53.686;10.094;2023-04-10T10:31:11;101810.25;;;17.44;95.40
19128;BME280;9696;53.686;10.094;2023-04-10T10:33:40;101805.13;;;16.98;92.05
19128;BME280;9696;53.686;10.094;2023-04-10T10:36:10;101806.69;;;16.44;91.60
19128;BME280;9696;53.686;10.094;2023-04-10T10:38:47;101792.09;;;17.04;90.51
19128;BME280;9696;53.686;10.094;2023-04-10T10:41:24;101787.88;;;18.00;90.76
19128;BME280;9696;53.686;10.094;2023-04-10T10:44:05;101782.59;;;17.47;86.88
19128;BME280;9696;53.686;10.094;2023-04-10T10:46:42;101771.53;;;17.33;86.03
19128;BME280;9696;53.686;10.094;2023-04-10T10:49:12;101763.13;;;17.73;87.73
19128;BME280;9696;53.686;10.094;2023-04-10T10:51:46;101762.75;;;17.33;84.57
19128;BME280;9696;53.686;10.094;2023-04-10T10:54:29;101756.31;;;17.53;79.99
19128;BME280;9696;53.686;10.094;2023-04-10T10:56:59;101760.59;;;18.15;81.07
19128;BME280;9696;53.686;10.094;2023-04-10T10:59:59;101740.06;;;17.38;86.53
19128;BME280;9696;53.686;10.094;2023-04-10T11:02:28;101738.03;;;17.32;81.68
19128;BME280;9696;53.686;10.094;2023-04-10T11:04:57;101740.66;;;16.97;82.99
19128;BME280;9696;53.686;10.094;2023-04-10T11:08:07;101732.88;;;17.66;80.62
19128;BME280;9696;53.686;10.094;2023-04-10T11:11:00;101719.13;;;17.88;78.90
19128;BME280;9696;53.686;10.094;2023-04-10T11:13:31;101722.56;;;17.46;71.02
19128;BME280;9696;53.686;10.094;2023-04-10T11:16:02;101714.59;;;17.81;68.90
19128;BME280;9696;53.686;10.094;2023-04-10T11:19:03;101703.28;;;18.05;66.88
19128;BME280;9696;53.686;10.094;2023-04-10T11:22:00;101711.72;;;17.04;70.89
19128;BME280;9696;53.686;10.094;2023-04-10T11:24:51;101688.28;;;17.96;72.50
19128;BME280;9696;53.686;10.094;2023-04-10T11:27:42;101705.22;;;17.16;71.41
19128;BME280;9696;53.686;10.094;2023-04-10T11:30:30;101683.97;;;17.69;70.77
19128;BME280;9696;53.686;10.094;2023-04-10T11:33:00;101674.72;;;18.32;68.65
19128;BME280;9696;53.686;10.094;2023-04-10T11:35:31;101672.56;;;18.02;71.70
19128;BME280;9696;53.686;10.094;2023-04-10T11:38:15;101665.38;;;17.95;70.59
19128;BME280;9696;53.686;10.094;2023-04-10T11:41:01;101662.91;;;17.50;67.82
19128;BME280;9696;53.686;10.094;2023-04-10T11:43:33;101648.13;;;18.24;72.24
19128;BME280;9696;53.686;10.094;2023-04-10T11:46:04;101655.31;;;17.55;71.87
19128;BME280;9696;53.686;10.094;2023-04-10T11:48:35;101655.34;;;18.14;70.15
19128;BME280;9696;53.686;10.094;2023-04-10T11:51:09;101652.84;;;18.05;66.56
19128;BME280;9696;53.686;10.094;2023-04-10T11:53:39;101640.91;;;17.83;66.50
19128;BME280;9696;53.686;10.094;2023-04-10T11:56:19;101638.75;;;18.12;68.73
19128;BME280;9696;53.686;10.094;2023-04-10T11:58:51;101641.56;;;17.77;73.47
19128;BME280;9696;53.686;10.094;2023-04-10T12:01:22;101628.22;;;17.95;69.56
19128;BME280;9696;53.686;10.094;2023-04-10T12:03:51;101627.25;;;18.46;69.82
19128;BME280;9696;53.686;10.094;2023-04-10T12:06:21;101627.94;;;18.48;65.05
19128;BME280;9696;53.686;10.094;2023-04-10T12:08:50;101628.94;;;17.53;60.45
19128;BME280;9696;53.686;10.094;2023-04-10T12:11:22;101614.00;;;18.54;60.09
19128;BME280;9696;53.686;10.094;2023-04-10T12:13:54;101611.03;;;18.65;59.45
19128;BME280;9696;53.686;10.094;2023-04-10T12:16:24;101593.78;;;18.85;55.06
19128;BME280;9696;53.686;10.094;2023-04-10T12:18:54;101589.69;;;18.24;57.01
19128;BME280;9696;53.686;10.094;2023-04-10T12:21:24;101589.38;;;18.44;56.25
19128;BME280;9696;53.686;10.094;2023-04-10T12:23:54;101597.88;;;17.97;60.39
19128;BME280;9696;53.686;10.094;2023-04-10T12:26:23;101597.06;;;17.71;59.93
19128;BME280;9696;53.686;10.094;2023-04-10T12:28:54;101584.19;;;17.84;57.43
19128;BME280;9696;53.686;10.094;2023-04-10T12:31:29;101579.34;;;17.79;56.89
19128;BME280;9696;53.686;10.094;2023-04-10T12:33:59;101574.00;;;18.55;56.10
19128;BME280;9696;53.686;10.094;2023-04-10T12:36:30;101585.44;;;18.06;55.81
19128;BME280;9696;53.686;10.094;2023-04-10T12:39:02;101578.44;;;18.47;54.96
19128;BME280;9696;53.686;10.094;2023-04-10T12:41:33;101573.06;;;17.80;52.75
19128;BME280;9696;53.686;10.094;2023-04-10T12:44:09;101567.00;;;18.54;57.85
19128;BME280;9696;53.686;10.094;2023-04-10T12:46:39;101562.06;;;18.67;52.93
19128;BME280;9696;53.686;10.094;2023-04-10T12:49:10;101557.28;;;18.13;51.83
19128;BME280;9696;53.686;10.094;2023-04-10T12:51:44;101551.34;;;18.35;53.67
19128;BME280;9696;53.686;10.094;2023-04-10T12:54:27;101553.50;;;18.40;52.74
19128;BME280;9696;53.686;10.094;2023-04-10T12:56:57;101545.91;;;18.61;50.04
19128;BME280;9696;53.686;10.094;2023-04-10T12:59:29;101554.97;;;18.26;52.78
19128;BME280;9696;53.686;10.094;2023-04-10T13:01:58;101543.47;;;18.17;49.49
19128;BME280;9696;53.686;10.094;2023-04-10T13:04:29;101527.22;;;18.12;48.86
19128;BME280;9696;53.686;10.094;2023-04-10T13:06:59;101526.66;;;17.93;49.01
19128;BME280;9696;53.686;10.094;2023-04-10T13:09:28;101523.59;;;17.71;49.46
19128;BME280;9696;53.686;10.094;2023-04-10T13:11:57;101502.25;;;18.63;52.39
19128;BME280;9696;53.686;10.094;2023-04-10T13:14:28;101505.56;;;18.57;50.17
19128;BME280;9696;53.686;10.094;2023-04-10T13:16:57;101503.63;;;18.17;50.50
19128;BME280;9696;53.686;10.094;2023-04-10T13:19:26;101502.34;;;17.71;49.91
19128;BME280;9696;53.686;10.094;2023-04-10T13:21:55;101493.38;;;18.38;54.13
19128;BME280;9696;53.686;10.094;2023-04-10T13:24:27;101487.56;;;18.27;48.29